sensor_id;sensor_type;location;lat;lon;timestamp;P1;durP1;ratioP1;P2;durP2;ratioP2
75516;SDS011;64097;52.548;13.406;2023-07-13T06:03:33;2.08;;;1.48;;
75516;SDS011;64097;52.548;13.406;2023-07-13T06:05:59;1.92;;;1.42;;
75516;SDS011;64097;52.548;13.406;2023-07-13T06:08:28;2.28;;;1.40;;
75516;SDS011;64097;52.548;13.406;2023-07-13T06:10:54;2.00;;;1.30;;
75516;SDS011;64097;52.548;13.406;2023-07-13T06:13:19;1.85;;;1.52;;
75516;SDS011;64097;52.548;13.406;2023-07-13T06:15:48;2.35;;;1.42;;
75516;SDS011;64097;52.548;13.406;2023-07-13T06:18:14;2.03;;;1.40;;
75516;SDS011;64097;52.548;13.406;2023-07-13T06:20:40;2.13;;;1.55;;
75516;SDS011;64097;52.548;13.406;2023-07-13T06:23:06;1.38;;;1.27;;
75516;SDS011;64097;52.548;13.406;2023-07-13T06:25:31;3.00;;;2.08;;
75516;SDS011;64097;52.548;13.406;2023-07-13T06:27:57;3.30;;;2.35;;
75516;SDS011;64097;52.548;13.406;2023-07-13T06:30:23;5.30;;;3.20;;
75516;SDS011;64097;52.548;13.406;2023-07-13T06:32:49;4.10;;;2.88;;
75516;SDS011;64097;52.548;13.406;2023-07-13T06:35:14;6.30;;;3.83;;
75516;SDS011;64097;52.548;13.406;2023-07-13T06:37:40;7.10;;;4.40;;
75516;SDS011;64097;52.548;13.406;2023-07-13T06:40:06;13.88;;;9.20;;
75516;SDS011;64097;52.548;13.406;2023-07-13T06:42:32;6.80;;;3.90;;
75516;SDS011;64097;52.548;13.406;2023-07-13T06:44:58;3.92;;;2.40;;
75516;SDS011;64097;52.548;13.406;2023-07-13T06:47:24;15.23;;;8.82;;
75516;SDS011;64097;52.548;13.406;2023-07-13T06:49:49;11.43;;;6.50;;
75516;SDS011;64097;52.548;13.406;2023-07-13T06:52:15;7.78;;;5.30;;
75516;SDS011;64097;52.548;13.406;2023-07-13T06:54:40;6.75;;;4.60;;
75516;SDS011;64097;52.548;13.406;2023-07-13T06:57:06;11.60;;;6.93;;
75516;SDS011;64097;52.548;13.406;2023-07-13T06:59:32;7.53;;;5.20;;
75516;SDS011;64097;52.548;13.406;2023-07-13T07:01:58;5.45;;;3.60;;
75516;SDS011;64097;52.548;13.406;2023-07-13T07:04:23;6.75;;;4.55;;
75516;SDS011;64097;52.548;13.406;2023-07-13T07:06:49;5.75;;;2.47;;
75516;SDS011;64097;52.548;13.406;2023-07-13T07:09:15;2.28;;;1.40;;
75516;SDS011;64097;52.548;13.406;2023-07-13T07:11:41;2.15;;;1.33;;
75516;SDS011;64097;52.548;13.406;2023-07-13T07:14:07;2.95;;;1.35;;
75516;SDS011;64097;52.548;13.406;2023-07-13T07:16:33;3.33;;;1.70;;
75516;SDS011;64097;52.548;13.406;2023-07-13T07:18:58;3.33;;;1.60;;
75516;SDS011;64097;52.548;13.406;2023-07-13T07:21:24;3.15;;;1.67;;
75516;SDS011;64097;52.548;13.406;2023-07-13T07:23:51;3.22;;;2.47;;
75516;SDS011;64097;52.548;13.406;2023-07-13T07:26:17;2.92;;;2.05;;
75516;SDS011;64097;52.548;13.406;2023-07-13T07:28:43;2.83;;;1.75;;
75516;SDS011;64097;52.548;13.406;2023-07-13T07:31:09;4.82;;;2.03;;
75516;SDS011;64097;52.548;13.406;2023-07-13T07:33:35;3.60;;;2.35;;
75516;SDS011;64097;52.548;13.406;2023-07-13T07:36:01;3.58;;;2.00;;
75516;SDS011;64097;52.548;13.406;2023-07-13T07:38:28;3.38;;;1.73;;
75516;SDS011;64097;52.548;13.406;2023-07-13T07:40:54;3.65;;;1.42;;
75516;SDS011;64097;52.548;13.406;2023-07-13T07:43:19;4.68;;;2.20;;
75516;SDS011;64097;52.548;13.406;2023-07-13T07:45:45;5.10;;;1.85;;
75516;SDS011;64097;52.548;13.406;2023-07-13T07:48:11;3.13;;;1.35;;
75516;SDS011;64097;52.548;13.406;2023-07-13T07:50:37;6.22;;;2.17;;
75516;SDS011;64097;52.548;13.406;2023-07-13T07:53:04;2.22;;;1.20;;
75516;SDS011;64097;52.548;13.406;2023-07-13T07:55:32;2.33;;;1.10;;
75516;SDS011;64097;52.548;13.406;2023-07-13T07:58:00;3.65;;;1.67;;
75516;SDS011;64097;52.548;13.406;2023-07-13T08:00:26;3.88;;;2.00;;
75516;SDS011;64097;52.548;13.406;2023-07-13T08:02:55;3.17;;;1.60;;
75516;SDS011;64097;52.548;13.406;2023-07-13T08:05:21;1.88;;;1.48;;
75516;SDS011;64097;52.548;13.406;2023-07-13T08:07:48;2.85;;;1.63;;
75516;SDS011;64097;52.548;13.406;2023-07-13T08:10:13;3.28;;;1.73;;
75516;SDS011;64097;52.548;13.406;2023-07-13T08:12:40;3.40;;;1.77;;
75516;SDS011;64097;52.548;13.406;2023-07-13T08:15:06;3.97;;;1.70;;
75516;SDS011;64097;52.548;13.406;2023-07-13T08:17:35;2.40;;;1.70;;
75516;SDS011;64097;52.548;13.406;2023-07-13T08:20:00;2.85;;;1.25;;
75516;SDS011;64097;52.548;13.406;2023-07-13T08:22:26;1.88;;;1.05;;
75516;SDS011;64097;52.548;13.406;2023-07-13T08:24:52;1.58;;;1.10;;
75516;SDS011;64097;52.548;13.406;2023-07-13T08:27:24;1.50;;;1.00;;
75516;SDS011;64097;52.548;13.406;2023-07-13T08:29:51;3.17;;;1.20;;
75516;SDS011;64097;52.548;13.406;2023-07-13T08:32:17;2.75;;;1.20;;
75516;SDS011;64097;52.548;13.406;2023-07-13T08:34:44;1.77;;;1.05;;
75516;SDS011;64097;52.548;13.406;2023-07-13T08:37:10;1.65;;;1.00;;
75516;SDS011;64097;52.548;13.406;2023-07-13T08:39:36;3.28;;;1.13;;
75516;SDS011;64097;52.548;13.406;2023-07-13T08:42:06;2.90;;;1.30;;
75516;SDS011;64097;52.548;13.406;2023-07-13T08:47:44;1.30;;;1.10;;
75516;SDS011;64097;52.548;13.406;2023-07-13T08:50:14;1.58;;;1.00;;
75516;SDS011;64097;52.548;13.406;2023-07-13T08:52:43;2.65;;;1.10;;
75516;SDS011;64097;52.548;13.406;2023-07-13T08:55:15;1.98;;;1.10;;
75516;SDS011;64097;52.548;13.406;2023-07-13T08:57:41;1.35;;;1.00;;
75516;SDS011;64097;52.548;13.406;2023-07-13T09:00:10;2.33;;;1.00;;
75516;SDS011;64097;52.548;13.406;2023-07-13T09:05:17;1.75;;;1.00;;
75516;SDS011;64097;52.548;13.406;2023-07-13T09:10:41;1.63;;;1.08;;
75516;SDS011;64097;52.548;13.406;2023-07-13T09:13:33;2.17;;;1.00;;
75516;SDS011;64097;52.548;13.406;2023-07-13T09:16:07;2.10;;;1.10;;
75516;SDS011;64097;52.548;13.406;2023-07-13T09:18:44;1.70;;;0.98;;
75516;SDS011;64097;52.548;13.406;2023-07-13T09:21:16;1.75;;;0.90;;
75516;SDS011;64097;52.548;13.406;2023-07-13T09:23:42;1.73;;;0.85;;
75516;SDS011;64097;52.548;13.406;2023-07-13T09:26:13;1.63;;;1.00;;
75516;SDS011;64097;52.548;13.406;2023-07-13T09:28:46;2.08;;;0.90;;
75516;SDS011;64097;52.548;13.406;2023-07-13T09:31:39;2.10;;;0.83;;
75516;SDS011;64097;52.548;13.406;2023-07-13T09:34:10;1.65;;;0.70;;
75516;SDS011;64097;52.548;13.406;2023-07-13T09:36:37;1.63;;;0.80;;
75516;SDS011;64097;52.548;13.406;2023-07-13T09:44:50;1.65;;;1.25;;
75516;SDS011;64097;52.548;13.406;2023-07-13T09:50:01;1.38;;;1.00;;
75516;SDS011;64097;52.548;13.406;2023-07-13T09:52:41;1.42;;;1.10;;
75516;SDS011;64097;52.548;13.406;2023-07-13T09:55:51;1.80;;;1.10;;
75516;SDS011;64097;52.548;13.406;2023-07-13T09:58:09;1.20;;;1.03;;
75516;SDS011;64097;52.548;13.406;2023-07-13T10:00:53;1.83;;;1.10;;
75516;SDS011;64097;52.548;13.406;2023-07-13T10:03:31;3.83;;;1.70;;
75516;SDS011;64097;52.548;13.406;2023-07-13T10:08:45;3.22;;;1.50;;
75516;SDS011;64097;52.548;13.406;2023-07-13T10:11:23;2.28;;;1.48;;
75516;SDS011;64097;52.548;13.406;2023-07-13T10:13:57;2.65;;;1.65;;
75516;SDS011;64097;52.548;13.406;2023-07-13T10:16:29;3.15;;;1.90;;
75516;SDS011;64097;52.548;13.406;2023-07-13T10:19:05;4.28;;;1.60;;
75516;SDS011;64097;52.548;13.406;2023-07-13T10:21:52;3.05;;;1.65;;
75516;SDS011;64097;52.548;13.406;2023-07-13T10:24:21;3.92;;;1.42;;
75516;SDS011;64097;52.548;13.406;2023-07-13T10:26:52;2.08;;;1.67;;
75516;SDS011;64097;52.548;13.406;2023-07-13T10:29:25;2.70;;;1.58;;
75516;SDS011;64097;52.548;13.406;2023-07-13T10:31:54;2.22;;;1.40;;
75516;SDS011;64097;52.548;13.406;2023-07-13T10:34:22;4.60;;;2.00;;
75516;SDS011;64097;52.548;13.406;2023-07-13T10:36:48;3.47;;;1.80;;
75516;SDS011;64097;52.548;13.406;2023-07-13T10:39:18;2.63;;;1.83;;
75516;SDS011;64097;52.548;13.406;2023-07-13T10:41:47;1.90;;;1.60;;
75516;SDS011;64097;52.548;13.406;2023-07-13T10:44:28;3.15;;;1.70;;
75516;SDS011;64097;52.548;13.406;2023-07-13T10:46:56;3.05;;;1.60;;
75516;SDS011;64097;52.548;13.406;2023-07-13T10:49:37;2.58;;;1.30;;
75516;SDS011;64097;52.548;13.406;2023-07-13T10:52:20;1.75;;;1.30;;
75516;SDS011;64097;52.548;13.406;2023-07-13T10:58:28;3.90;;;1.70;;
75516;SDS011;64097;52.548;13.406;2023-07-13T11:01:03;2.42;;;1.70;;
75516;SDS011;64097;52.548;13.406;2023-07-13T11:03:36;2.35;;;1.33;;
75516;SDS011;64097;52.548;13.406;2023-07-13T11:13:55;2.60;;;1.60;;
75516;SDS011;64097;52.548;13.406;2023-07-13T11:21:30;2.85;;;1.60;;
75516;SDS011;64097;52.548;13.406;2023-07-13T11:26:50;2.45;;;1.60;;
75516;SDS011;64097;52.548;13.406;2023-07-13T11:31:43;3.78;;;1.60;;
75516;SDS011;64097;52.548;13.406;2023-07-13T11:34:19;2.58;;;1.50;;
75516;SDS011;64097;52.548;13.406;2023-07-13T11:36:52;2.80;;;1.58;;
75516;SDS011;64097;52.548;13.406;2023-07-13T11:39:19;3.22;;;1.58;;
75516;SDS011;64097;52.548;13.406;2023-07-13T11:41:58;3.03;;;1.60;;
75516;SDS011;64097;52.548;13.406;2023-07-13T11:44:27;3.13;;;1.60;;
75516;SDS011;64097;52.548;13.406;2023-07-13T11:46:58;1.98;;;1.40;;
75516;SDS011;64097;52.548;13.406;2023-07-13T11:49:45;2.08;;;1.25;;
75516;SDS011;64097;52.548;13.406;2023-07-13T11:52:18;1.75;;;1.20;;
75516;SDS011;64097;52.548;13.406;2023-07-13T11:54:49;3.08;;;1.75;;
75516;SDS011;64097;52.548;13.406;2023-07-13T11:57:28;2.22;;;1.42;;
75516;SDS011;64097;52.548;13.406;2023-07-13T12:00:00;1.80;;;1.30;;
75516;SDS011;64097;52.548;13.406;2023-07-13T12:02:37;1.42;;;1.00;;
75516;SDS011;64097;52.548;13.406;2023-07-13T12:05:06;1.83;;;1.23;;
75516;SDS011;64097;52.548;13.406;2023-07-13T12:07:37;1.90;;;1.42;;
75516;SDS011;64097;52.548;13.406;2023-07-13T12:13:03;2.08;;;1.50;;
75516;SDS011;64097;52.548;13.406;2023-07-13T12:15:38;3.22;;;1.60;;
75516;SDS011;64097;52.548;13.406;2023-07-13T12:18:20;2.00;;;1.55;;
75516;SDS011;64097;52.548;13.406;2023-07-13T12:20:48;2.15;;;1.42;;
75516;SDS011;64097;52.548;13.406;2023-07-13T12:23:25;1.75;;;1.20;;
75516;SDS011;64097;52.548;13.406;2023-07-13T12:25:53;2.20;;;1.50;;
75516;SDS011;64097;52.548;13.406;2023-07-13T12:28:20;4.93;;;1.40;;
75516;SDS011;64097;52.548;13.406;2023-07-13T12:31:07;3.17;;;1.52;;
75516;SDS011;64097;52.548;13.406;2023-07-13T12:34:01;2.67;;;1.40;;
75516;SDS011;64097;52.548;13.406;2023-07-13T12:36:29;3.33;;;1.50;;
75516;SDS011;64097;52.548;13.406;2023-07-13T12:38:59;3.08;;;1.40;;
75516;SDS011;64097;52.548;13.406;2023-07-13T12:41:29;2.30;;;1.50;;
75516;SDS011;64097;52.548;13.406;2023-07-13T12:43:55;3.17;;;1.20;;
75516;SDS011;64097;52.548;13.406;2023-07-13T12:46:23;1.92;;;1.15;;
75516;SDS011;64097;52.548;13.406;2023-07-13T12:48:53;2.03;;;1.25;;
75516;SDS011;64097;52.548;13.406;2023-07-13T12:51:22;1.83;;;1.20;;
75516;SDS011;64097;52.548;13.406;2023-07-13T12:53:55;2.15;;;1.20;;
75516;SDS011;64097;52.548;13.406;2023-07-13T12:58:56;2.65;;;1.10;;
75516;SDS011;64097;52.548;13.406;2023-07-13T13:01:28;4.95;;;1.10;;
75516;SDS011;64097;52.548;13.406;2023-07-13T13:03:56;4.30;;;1.45;;
75516;SDS011;64097;52.548;13.406;2023-07-13T13:06:26;1.73;;;1.23;;
75516;SDS011;64097;52.548;13.406;2023-07-13T13:08:55;4.15;;;1.10;;
75516;SDS011;64097;52.548;13.406;2023-07-13T13:11:23;1.30;;;0.90;;
75516;SDS011;64097;52.548;13.406;2023-07-13T13:13:51;2.45;;;1.23;;
75516;SDS011;64097;52.548;13.406;2023-07-13T13:18:53;3.42;;;2.97;;
75516;SDS011;64097;52.548;13.406;2023-07-13T13:21:24;4.85;;;3.75;;
75516;SDS011;64097;52.548;13.406;2023-07-13T13:23:51;2.10;;;1.40;;
75516;SDS011;64097;52.548;13.406;2023-07-13T13:26:18;1.20;;;1.10;;
75516;SDS011;64097;52.548;13.406;2023-07-13T13:28:46;1.27;;;0.98;;
75516;SDS011;64097;52.548;13.406;2023-07-13T13:31:12;2.05;;;1.23;;
75516;SDS011;64097;52.548;13.406;2023-07-13T13:33:40;4.07;;;1.40;;
75516;SDS011;64097;52.548;13.406;2023-07-13T13:36:13;3.20;;;1.50;;
75516;SDS011;64097;52.548;13.406;2023-07-13T13:38:39;2.70;;;1.35;;
75516;SDS011;64097;52.548;13.406;2023-07-13T13:41:05;3.08;;;1.40;;
75516;SDS011;64097;52.548;13.406;2023-07-13T13:43:32;2.65;;;1.20;;
75516;SDS011;64097;52.548;13.406;2023-07-13T13:45:59;2.53;;;1.38;;
75516;SDS011;64097;52.548;13.406;2023-07-13T13:48:32;3.50;;;1.35;;
75516;SDS011;64097;52.548;13.406;2023-07-13T13:51:01;2.67;;;1.23;;
75516;SDS011;64097;52.548;13.406;2023-07-13T13:53:38;2.40;;;1.00;;
75516;SDS011;64097;52.548;13.406;2023-07-13T13:56:04;2.03;;;1.10;;
75516;SDS011;64097;52.548;13.406;2023-07-13T13:58:30;4.60;;;1.10;;
